createdAt,value
2023-02-20T00:00:39.241Z,97888.06
2023-02-20T00:03:07.533Z,97891.00
2023-02-20T00:05:34.631Z,97894.69
2023-02-20T00:08:01.541Z,97885.06
2023-02-20T00:10:28.514Z,97884.31
2023-02-20T00:12:55.459Z,97884.59
2023-02-20T00:15:22.890Z,97874.13
2023-02-20T00:17:49.879Z,97872.69
2023-02-20T00:20:20.597Z,97861.38
2023-02-20T00:22:47.689Z,97872.34
2023-02-20T00:25:17.891Z,97871.88
2023-02-20T00:27:44.919Z,97882.75
2023-02-20T00:30:21.310Z,97870.81
2023-02-20T00:32:50.645Z,97870.81
2023-02-20T00:35:18.328Z,97879.00
2023-02-20T00:37:47.071Z,97880.09
2023-02-20T00:40:15.743Z,97884.75
2023-02-20T00:42:42.621Z,97896.56
2023-02-20T00:45:10.341Z,97901.94
2023-02-20T00:47:37.505Z,97898.56
2023-02-20T00:50:06.274Z,97894.41
2023-02-20T00:52:33.057Z,97903.41
2023-02-20T00:54:59.830Z,97892.84
2023-02-20T00:57:26.629Z,97891.13
2023-02-20T00:59:54.588Z,97886.72
2023-02-20T01:02:21.496Z,97892.09
2023-02-20T01:04:48.909Z,97888.56
2023-02-20T01:07:16.020Z,97890.53
2023-02-20T01:09:43.223Z,97891.63
2023-02-20T01:12:10.076Z,97895.28
2023-02-20T01:14:37.376Z,97894.56
2023-02-20T01:17:04.310Z,97894.69
2023-02-20T01:19:31.292Z,97893.94
2023-02-20T01:21:58.121Z,97886.88
2023-02-20T01:24:26.513Z,97887.00
2023-02-20T01:26:53.317Z,97888.94
2023-02-20T01:29:20.125Z,97886.53
2023-02-20T01:31:49.970Z,97884.09
2023-02-20T01:34:18.191Z,97881.22
2023-02-20T01:36:51.301Z,97880.97
2023-02-20T01:39:25.001Z,97876.69
2023-02-20T01:41:59.135Z,97877.69
2023-02-20T01:44:31.453Z,97875.16
2023-02-20T01:47:01.636Z,97871.59
2023-02-20T01:49:35.100Z,97880.75
2023-02-20T01:52:19.985Z,97868.56
2023-02-20T01:54:56.264Z,97860.53
2023-02-20T01:57:26.476Z,97851.66
2023-02-20T01:59:58.758Z,97852.63
2023-02-20T02:02:28.693Z,97854.44
2023-02-20T02:04:55.455Z,97857.63
2023-02-20T02:07:24.328Z,97857.13
2023-02-20T02:09:59.035Z,97850.31
2023-02-20T02:12:29.284Z,97863.47
2023-02-20T02:14:56.264Z,97853.59
2023-02-20T02:17:58.386Z,97844.13
2023-02-20T02:20:56.217Z,97850.44
2023-02-20T02:24:05.750Z,97846.31
2023-02-20T02:27:19.345Z,97847.16
2023-02-20T02:30:13.080Z,97850.84
2023-02-20T02:33:33.298Z,97838.28
2023-02-20T02:36:44.562Z,97847.31
2023-02-20T02:39:38.335Z,97836.84
2023-02-20T02:42:23.312Z,97845.47
2023-02-20T02:45:23.124Z,97840.84
2023-02-20T02:48:11.230Z,97844.25
2023-02-20T02:50:41.912Z,97836.53
2023-02-20T02:53:09.727Z,97827.28
2023-02-20T02:55:36.827Z,97843.97
2023-02-20T02:58:05.633Z,97838.50
2023-02-20T03:00:51.465Z,97837.66
2023-02-20T03:03:33.169Z,97825.81
2023-02-20T03:06:13.125Z,97834.31
2023-02-20T03:08:57.467Z,97835.06
2023-02-20T03:11:28.622Z,97832.59
2023-02-20T03:14:40.452Z,97827.94
2023-02-20T03:17:18.506Z,97837.44
2023-02-20T03:19:51.921Z,97834.97
2023-02-20T03:22:32.167Z,97835.81
2023-02-20T03:25:18.218Z,97837.28
2023-02-20T03:27:58.801Z,97836.91
2023-02-20T03:30:43.683Z,97825.19
2023-02-20T03:34:02.071Z,97816.91
2023-02-20T03:37:04.745Z,97817.88
2023-02-20T03:39:55.058Z,97824.81
2023-02-20T03:42:43.739Z,97823.13
2023-02-20T03:45:26.429Z,97816.19
2023-02-20T03:47:59.964Z,97819.84
2023-02-20T03:50:48.290Z,97826.91
2023-02-20T03:53:15.570Z,97827.03
2023-02-20T03:55:42.904Z,97830.66
2023-02-20T03:58:16.706Z,97826.56
2023-02-20T04:00:48.424Z,97821.19
2023-02-20T04:03:23.675Z,97820.63
2023-02-20T04:05:56.695Z,97819.03
2023-02-20T04:08:46.731Z,97823.09
2023-02-20T04:11:24.038Z,97813.47
2023-02-20T04:13:53.414Z,97820.53
2023-02-20T04:16:21.699Z,97812.00
2023-02-20T04:18:49.462Z,97806.78
2023-02-20T04:21:38.097Z,97795.84
2023-02-20T04:24:14.216Z,97794.28
2023-02-20T04:26:41.411Z,97790.75
2023-02-20T04:29:08.522Z,97788.22
2023-02-20T04:31:35.982Z,97787.59
2023-02-20T04:34:03.208Z,97787.00
2023-02-20T04:36:30.065Z,97788.09
2023-02-20T04:38:59.121Z,97794.69
2023-02-20T04:41:30.074Z,97793.97
2023-02-20T04:44:17.007Z,97804.19
2023-02-20T04:46:46.229Z,97803.72
2023-02-20T04:49:14.204Z,97801.44
2023-02-20T04:51:42.280Z,97802.81
2023-02-20T04:54:09.126Z,97808.41
2023-02-20T04:56:35.974Z,97813.28
2023-02-20T04:59:05.850Z,97799.91
2023-02-20T05:01:32.963Z,97810.38
2023-02-20T05:03:59.746Z,97810.84
2023-02-20T05:06:26.539Z,97810.38
2023-02-20T05:08:53.338Z,97807.09
2023-02-20T05:11:20.243Z,97814.50
2023-02-20T05:13:47.045Z,97816.72
2023-02-20T05:16:14.268Z,97808.06
2023-02-20T05:18:41.280Z,97803.84
2023-02-20T05:21:26.734Z,97814.78
2023-02-20T05:23:53.495Z,97809.78
2023-02-20T05:26:22.347Z,97797.78
2023-02-20T05:28:49.121Z,97796.91
2023-02-20T05:31:17.788Z,97806.03
2023-02-20T05:33:44.971Z,97800.06
2023-02-20T05:36:12.270Z,97795.81
2023-02-20T05:38:41.402Z,97789.84
2023-02-20T05:41:08.244Z,97796.16
2023-02-20T05:43:35.046Z,97792.88
2023-02-20T05:46:01.823Z,97790.34
2023-02-20T05:48:28.599Z,97790.56
2023-02-20T05:50:55.352Z,97799.69
2023-02-20T05:53:22.128Z,97789.13
2023-02-20T05:55:48.986Z,97799.09
2023-02-20T05:58:15.836Z,97800.91
2023-02-20T06:00:42.611Z,97815.34
2023-02-20T06:03:12.358Z,97808.41
2023-02-20T06:05:39.236Z,97805.03
2023-02-20T06:08:06.250Z,97791.78
2023-02-20T06:10:33.426Z,97793.00
2023-02-20T06:13:00.378Z,97798.56
2023-02-20T06:15:27.372Z,97806.78
2023-02-20T06:17:54.153Z,97801.69
2023-02-20T06:20:20.927Z,97801.94
2023-02-20T06:22:49.057Z,97800.47
2023-02-20T06:25:16.356Z,97795.22
2023-02-20T06:27:43.157Z,97798.16
2023-02-20T06:30:11.140Z,97803.72
2023-02-20T06:32:38.179Z,97809.28
2023-02-20T06:35:06.060Z,97816.69
2023-02-20T06:37:32.874Z,97801.78
2023-02-20T06:39:59.862Z,97814.38
2023-02-20T06:42:26.629Z,97824.44
2023-02-20T06:44:53.406Z,97824.56
2023-02-20T06:47:20.200Z,97830.00
2023-02-20T06:49:47.468Z,97827.31
2023-02-20T06:52:14.620Z,97824.66
2023-02-20T06:54:41.371Z,97824.66
2023-02-20T06:57:08.325Z,97823.81
2023-02-20T06:59:41.301Z,97826.38
2023-02-20T07:02:12.482Z,97830.00
2023-02-20T07:04:39.387Z,97832.66
2023-02-20T07:07:06.361Z,97832.56
2023-02-20T07:09:33.180Z,97831.72
2023-02-20T07:12:00.097Z,97829.91
2023-02-20T07:14:26.849Z,97834.25
2023-02-20T07:16:53.600Z,97825.41
2023-02-20T07:19:20.432Z,97826.25
2023-02-20T07:21:47.767Z,97827.94
2023-02-20T07:24:14.874Z,97829.69
2023-02-20T07:26:41.750Z,97839.38
2023-02-20T07:29:08.815Z,97836.72
2023-02-20T07:31:35.681Z,97836.72
2023-02-20T07:34:02.513Z,97837.44
2023-02-20T07:36:35.384Z,97841.94
2023-02-20T07:39:03.356Z,97839.16
2023-02-20T07:41:35.801Z,97839.88
2023-02-20T07:44:04.721Z,97840.50
2023-02-20T07:46:33.860Z,97841.22
2023-02-20T07:49:03.560Z,97844.50
2023-02-20T07:51:30.902Z,97835.31
2023-02-20T07:53:58.791Z,97842.97
2023-02-20T07:56:25.690Z,97841.66
2023-02-20T07:58:52.853Z,97844.00
2023-02-20T08:01:20.248Z,97842.81
2023-02-20T08:03:47.529Z,97833.44
2023-02-20T08:06:18.462Z,97826.06
2023-02-20T08:08:50.456Z,97826.44
2023-02-20T08:11:22.808Z,97831.16
2023-02-20T08:13:50.224Z,97834.09
2023-02-20T08:16:17.405Z,97828.13
2023-02-20T08:18:44.392Z,97831.06
2023-02-20T08:21:11.196Z,97825.09
2023-02-20T08:23:38.051Z,97823.75
2023-02-20T08:26:05.757Z,97824.13
2023-02-20T08:28:32.577Z,97823.38
2023-02-20T08:30:59.416Z,97820.09
2023-02-20T08:33:26.241Z,97822.88
2023-02-20T08:35:54.214Z,97825.78
2023-02-20T08:38:38.579Z,97820.78
2023-02-20T08:41:08.282Z,97810.91
2023-02-20T08:43:36.160Z,97808.44
2023-02-20T08:46:05.310Z,97801.47
2023-02-20T08:48:32.491Z,97804.09
2023-02-20T08:50:59.324Z,97808.56
2023-02-20T08:53:26.121Z,97803.31
2023-02-20T08:55:52.916Z,97805.06
2023-02-20T08:58:24.893Z,97797.47
2023-02-20T09:00:52.418Z,97799.41
2023-02-20T09:03:19.272Z,97798.59
2023-02-20T09:05:46.484Z,97799.63
2023-02-20T09:08:13.402Z,97794.47
2023-02-20T09:10:40.387Z,97794.50
2023-02-20T09:13:07.528Z,97789.91
2023-02-20T09:15:39.462Z,97791.75
2023-02-20T09:18:09.931Z,97800.56
2023-02-20T09:20:37.683Z,97793.00
2023-02-20T09:23:06.172Z,97784.69
2023-02-20T09:25:33.526Z,97782.47
2023-02-20T09:28:00.334Z,97779.53
2023-02-20T09:30:27.700Z,97777.31
2023-02-20T09:32:55.406Z,97782.25
2023-02-20T09:35:28.929Z,97776.44
2023-02-20T09:37:56.271Z,97762.28
2023-02-20T09:40:26.224Z,97774.41
2023-02-20T09:43:17.297Z,97766.63
2023-02-20T09:46:02.415Z,97766.72
2023-02-20T09:48:53.313Z,97769.13
2023-02-20T09:51:23.187Z,97760.25
2023-02-20T09:54:06.220Z,97759.53
2023-02-20T09:56:40.912Z,97764.03
2023-02-20T09:59:15.722Z,97763.44
2023-02-20T10:01:58.008Z,97752.75
2023-02-20T10:04:52.220Z,97748.16
2023-02-20T10:07:41.268Z,97747.94
2023-02-20T10:10:18.748Z,97740.66
2023-02-20T10:13:08.368Z,97734.19
2023-02-20T10:16:09.867Z,97735.81
2023-02-20T10:19:14.269Z,97739.69
2023-02-20T10:22:19.129Z,97727.50
2023-02-20T10:24:57.926Z,97724.94
2023-02-20T10:27:55.127Z,97727.06
2023-02-20T10:30:35.793Z,97728.84
2023-02-20T10:33:22.179Z,97732.66
2023-02-20T10:36:04.498Z,97733.59
2023-02-20T10:38:50.569Z,97718.34
2023-02-20T10:41:46.847Z,97720.94
2023-02-20T10:44:35.492Z,97710.19
2023-02-20T10:47:34.947Z,97716.47
2023-02-20T10:50:09.317Z,97717.19
2023-02-20T10:53:02.322Z,97706.53
2023-02-20T10:55:44.011Z,97703.56
2023-02-20T10:58:31.286Z,97700.84
2023-02-20T11:01:07.193Z,97706.41
2023-02-20T11:03:49.801Z,97701.13
2023-02-20T11:06:21.747Z,97709.25
2023-02-20T11:08:48.868Z,97711.78
2023-02-20T11:11:29.667Z,97709.22
2023-02-20T11:13:59.750Z,97696.38
2023-02-20T11:16:37.286Z,97694.84
2023-02-20T11:19:12.898Z,97693.50
2023-02-20T11:21:47.048Z,97698.72
2023-02-20T11:24:44.432Z,97691.13
2023-02-20T11:27:19.614Z,97689.09
2023-02-20T11:29:55.641Z,97684.72
2023-02-20T11:32:27.677Z,97677.25
2023-02-20T11:35:27.152Z,97693.50
2023-02-20T11:38:17.403Z,97666.06
2023-02-20T11:40:54.769Z,97672.50
2023-02-20T11:43:27.583Z,97645.88
2023-02-20T11:46:11.063Z,97660.44
2023-02-20T11:48:40.645Z,97660.25
2023-02-20T11:51:48.104Z,97652.28
2023-02-20T11:54:29.480Z,97643.13
2023-02-20T11:57:28.501Z,97637.19
2023-02-20T12:00:21.886Z,97630.22
2023-02-20T12:03:08.836Z,97636.25
2023-02-20T12:05:46.282Z,97631.47
2023-02-20T12:08:42.196Z,97623.44
2023-02-20T12:11:14.870Z,97618.81
2023-02-20T12:13:45.391Z,97619.59
2023-02-20T12:16:18.317Z,97612.78
2023-02-20T12:19:11.413Z,97608.69
2023-02-20T12:22:19.694Z,97606.41
2023-02-20T12:25:23.682Z,97599.75
2023-02-20T12:28:03.426Z,97609.13
2023-02-20T12:30:47.803Z,97600.91
2023-02-20T12:33:58.381Z,97596.91
2023-02-20T12:36:42.345Z,97588.97
2023-02-20T12:39:32.339Z,97597.47
2023-02-20T12:42:24.030Z,97591.13
2023-02-20T12:45:20.860Z,97588.50
2023-02-20T12:48:07.109Z,97574.47
2023-02-20T12:51:05.925Z,97573.34
2023-02-20T12:53:38.519Z,97573.97
2023-02-20T12:56:27.313Z,97549.88
2023-02-20T12:59:22.741Z,97545.88
2023-02-20T13:01:51.802Z,97541.06
2023-02-20T13:04:32.750Z,97539.16
2023-02-20T13:07:04.575Z,97543.56
2023-02-20T13:09:43.422Z,97527.56
2023-02-20T13:12:16.589Z,97525.22
2023-02-20T13:15:14.875Z,97502.13
2023-02-20T13:18:27.205Z,97510.00
2023-02-20T13:21:00.612Z,97508.63
2023-02-20T13:23:34.728Z,97498.84
2023-02-20T13:26:02.166Z,97488.56
2023-02-20T13:28:45.550Z,97481.22
2023-02-20T13:31:43.154Z,97483.94
2023-02-20T13:34:09.831Z,97488.91
2023-02-20T13:36:39.596Z,97481.09
2023-02-20T13:39:36.238Z,97479.28
2023-02-20T13:42:24.192Z,97470.41
2023-02-20T13:44:52.450Z,97464.91
2023-02-20T13:47:34.658Z,97473.09
2023-02-20T13:50:02.248Z,97467.31
2023-02-20T13:52:42.408Z,97461.06
2023-02-20T13:55:26.848Z,97469.03
2023-02-20T13:57:57.740Z,97466.44
2023-02-20T14:00:53.786Z,97470.09
2023-02-20T14:03:31.422Z,97460.09
2023-02-20T14:06:08.347Z,97462.84
2023-02-20T14:08:38.486Z,97466.22
2023-02-20T14:11:16.992Z,97446.44
2023-02-20T14:13:47.920Z,97458.56
2023-02-20T14:16:39.079Z,97458.91
2023-02-20T14:19:23.911Z,97458.66
2023-02-20T14:21:51.103Z,97458.69
2023-02-20T14:24:28.609Z,97440.09
2023-02-20T14:26:56.698Z,97419.47
2023-02-20T14:29:34.160Z,97436.28
2023-02-20T14:32:03.845Z,97435.63
2023-02-20T14:35:11.320Z,97416.22
2023-02-20T14:38:05.888Z,97415.59
2023-02-20T14:40:46.095Z,97434.09
2023-02-20T14:43:23.657Z,97411.59
2023-02-20T14:46:05.205Z,97424.63
2023-02-20T14:48:41.797Z,97404.75
2023-02-20T14:51:25.486Z,97431.75
2023-02-20T14:54:02.184Z,97418.25
2023-02-20T14:56:33.784Z,97396.19
2023-02-20T14:59:26.276Z,97402.47
2023-02-20T15:02:00.094Z,97399.69
2023-02-20T15:04:27.554Z,97399.84
2023-02-20T15:07:03.346Z,97405.81
2023-02-20T15:09:40.478Z,97404.69
2023-02-20T15:12:09.094Z,97397.91
2023-02-20T15:14:42.575Z,97429.41
2023-02-20T15:17:27.331Z,97393.06
2023-02-20T15:19:54.785Z,97402.53
2023-02-20T15:22:40.242Z,97389.63
2023-02-20T15:25:13.144Z,97397.28
2023-02-20T15:27:40.114Z,97393.72
2023-02-20T15:30:19.539Z,97399.66
2023-02-20T15:32:53.280Z,97391.59
2023-02-20T15:35:26.404Z,97394.78
2023-02-20T15:38:00.751Z,97387.84
2023-02-20T15:40:31.882Z,97393.03
2023-02-20T15:43:04.305Z,97395.28
2023-02-20T15:45:31.920Z,97386.56
2023-02-20T15:47:58.749Z,97387.59
2023-02-20T15:50:28.416Z,97380.47
2023-02-20T15:52:55.833Z,97378.56
2023-02-20T15:55:23.446Z,97376.03
2023-02-20T15:57:56.502Z,97382.63
2023-02-20T16:00:32.529Z,97369.16
2023-02-20T16:03:02.713Z,97363.28
2023-02-20T16:05:29.823Z,97373.25
2023-02-20T16:07:56.659Z,97377.88
2023-02-20T16:10:25.565Z,97375.28
2023-02-20T16:12:58.230Z,97379.69
2023-02-20T16:15:26.186Z,97361.38
2023-02-20T16:17:54.066Z,97366.63
2023-02-20T16:20:29.818Z,97356.78
2023-02-20T16:22:56.827Z,97351.75
2023-02-20T16:25:24.623Z,97345.34
2023-02-20T16:27:53.751Z,97334.59
2023-02-20T16:30:33.277Z,97346.31
2023-02-20T16:33:02.110Z,97341.31
2023-02-20T16:35:29.072Z,97324.75
2023-02-20T16:37:55.884Z,97337.19
2023-02-20T16:40:22.670Z,97342.50
2023-02-20T16:42:49.489Z,97333.72
2023-02-20T16:45:18.952Z,97330.19
2023-02-20T16:47:52.313Z,97339.91
2023-02-20T16:50:28.589Z,97335.19
2023-02-20T16:52:57.827Z,97343.91
2023-02-20T16:55:32.524Z,97340.72
2023-02-20T16:58:00.422Z,97335.84
2023-02-20T17:00:56.311Z,97333.31
2023-02-20T17:03:24.328Z,97337.47
2023-02-20T17:05:58.302Z,97336.38
2023-02-20T17:08:26.941Z,97334.41
2023-02-20T17:10:53.951Z,97336.63
2023-02-20T17:13:20.764Z,97343.44
2023-02-20T17:15:47.928Z,97335.91
2023-02-20T17:18:15.382Z,97338.16
2023-02-20T17:20:42.506Z,97338.53
2023-02-20T17:23:09.430Z,97334.34
2023-02-20T17:25:36.228Z,97347.34
2023-02-20T17:28:05.239Z,97346.03
2023-02-20T17:30:32.151Z,97337.28
2023-02-20T17:32:59.425Z,97335.72
2023-02-20T17:35:26.638Z,97342.34
2023-02-20T17:37:53.516Z,97338.94
2023-02-20T17:40:20.548Z,97345.38
2023-02-20T17:42:47.514Z,97334.75
2023-02-20T17:45:16.050Z,97342.84
2023-02-20T17:47:42.898Z,97347.19
2023-02-20T17:50:09.853Z,97344.31
2023-02-20T17:52:37.530Z,97341.78
2023-02-20T17:55:06.250Z,97337.38
2023-02-20T17:57:33.055Z,97340.72
2023-02-20T17:59:59.954Z,97336.31
2023-02-20T18:02:26.868Z,97341.81
2023-02-20T18:04:53.756Z,97341.97
2023-02-20T18:07:20.646Z,97342.09
2023-02-20T18:09:47.422Z,97355.69
2023-02-20T18:12:14.229Z,97345.03
2023-02-20T18:14:41.004Z,97344.13
2023-02-20T18:17:07.829Z,97352.19
2023-02-20T18:19:34.712Z,97346.91
2023-02-20T18:22:01.585Z,97343.31
2023-02-20T18:24:29.998Z,97355.88
2023-02-20T18:26:57.167Z,97357.69
2023-02-20T18:29:25.368Z,97355.22
2023-02-20T18:31:53.878Z,97351.59
2023-02-20T18:34:21.694Z,97354.22
2023-02-20T18:36:48.630Z,97352.31
2023-02-20T18:39:16.627Z,97354.94
2023-02-20T18:41:56.174Z,97362.38
2023-02-20T18:44:23.576Z,97358.31
2023-02-20T18:46:51.080Z,97362.75
2023-02-20T18:49:18.112Z,97357.16
2023-02-20T18:51:45.355Z,97355.41
2023-02-20T18:54:18.622Z,97351.06
2023-02-20T18:56:50.672Z,97350.16
2023-02-20T18:59:18.622Z,97347.06
2023-02-20T19:01:46.253Z,97347.81
2023-02-20T19:04:14.749Z,97343.34
2023-02-20T19:06:43.886Z,97346.50
2023-02-20T19:09:23.591Z,97349.19
2023-02-20T19:11:56.383Z,97347.22
2023-02-20T19:14:25.394Z,97342.31
2023-02-20T19:16:56.788Z,97340.34
2023-02-20T19:19:26.629Z,97336.31
2023-02-20T19:21:54.504Z,97345.22
2023-02-20T19:24:22.775Z,97342.41
2023-02-20T19:26:50.123Z,97347.53
2023-02-20T19:29:17.047Z,97348.25
2023-02-20T19:31:44.020Z,97337.41
2023-02-20T19:34:10.882Z,97343.66
2023-02-20T19:36:41.591Z,97336.44
2023-02-20T19:39:09.630Z,97337.19
2023-02-20T19:41:37.894Z,97340.56
2023-02-20T19:44:05.550Z,97338.44
2023-02-20T19:46:32.414Z,97335.50
2023-02-20T19:48:59.178Z,97334.22
2023-02-20T19:51:25.999Z,97334.81
2023-02-20T19:53:52.929Z,97334.50
2023-02-20T19:56:19.835Z,97331.41
2023-02-20T19:58:46.636Z,97324.91
2023-02-20T20:01:19.382Z,97329.25
2023-02-20T20:03:47.475Z,97327.84
2023-02-20T20:06:17.327Z,97327.56
2023-02-20T20:09:09.538Z,97334.03
2023-02-20T20:11:31.402Z,97325.00
2023-02-20T20:13:58.158Z,97324.59
2023-02-20T20:16:25.064Z,97331.19
2023-02-20T20:18:53.294Z,97335.97
2023-02-20T20:21:22.587Z,97339.91
2023-02-20T20:23:49.461Z,97338.50
2023-02-20T20:26:16.520Z,97336.22
2023-02-20T20:28:43.648Z,97340.84
2023-02-20T20:31:10.493Z,97342.97
2023-02-20T20:33:37.320Z,97341.28
2023-02-20T20:36:04.586Z,97344.22
2023-02-20T20:38:31.381Z,97339.16
2023-02-20T20:40:58.218Z,97336.75
2023-02-20T20:43:25.026Z,97345.03
2023-02-20T20:45:51.833Z,97336.44
2023-02-20T20:48:18.605Z,97328.69
2023-02-20T20:50:45.432Z,97331.63
2023-02-20T20:53:13.172Z,97326.69
2023-02-20T20:55:39.941Z,97330.63
2023-02-20T20:58:06.722Z,97335.50
2023-02-20T21:00:35.192Z,97332.38
2023-02-20T21:03:04.644Z,97331.78
2023-02-20T21:05:33.497Z,97333.03
2023-02-20T21:08:01.733Z,97329.09
2023-02-20T21:10:28.582Z,97324.97
2023-02-20T21:12:58.052Z,97322.56
2023-02-20T21:15:25.477Z,97315.69
2023-02-20T21:17:53.198Z,97320.28
2023-02-20T21:20:25.558Z,97325.91
2023-02-20T21:22:53.857Z,97323.38
2023-02-20T21:25:25.054Z,97322.66
2023-02-20T21:27:53.714Z,97321.09
2023-02-20T21:30:23.124Z,97321.50
2023-02-20T21:32:49.968Z,97313.03
2023-02-20T21:35:19.498Z,97322.28
2023-02-20T21:37:47.254Z,97313.78
2023-02-20T21:40:18.644Z,97317.69
2023-02-20T21:43:03.722Z,97309.94
2023-02-20T21:45:30.538Z,97317.47
2023-02-20T21:47:57.332Z,97322.13
2023-02-20T21:50:24.288Z,97312.53
2023-02-20T21:52:51.124Z,97312.53
2023-02-20T21:55:19.622Z,97312.66
2023-02-20T21:57:46.516Z,97315.34
2023-02-20T22:00:14.851Z,97310.84
2023-02-20T22:02:41.719Z,97308.91
2023-02-20T22:05:10.203Z,97306.09
2023-02-20T22:07:56.084Z,97301.44
2023-02-20T22:10:42.976Z,97300.50
2023-02-20T22:13:31.016Z,97294.16
2023-02-20T22:16:16.606Z,97294.75
2023-02-20T22:19:02.011Z,97295.59
2023-02-20T22:21:47.256Z,97294.75
2023-02-20T22:24:38.729Z,97301.09
2023-02-20T22:27:26.806Z,97301.19
2023-02-20T22:30:12.885Z,97300.09
2023-02-20T22:32:58.088Z,97297.44
2023-02-20T22:35:43.919Z,97300.94
2023-02-20T22:38:29.072Z,97294.63
2023-02-20T22:41:14.722Z,97305.44
2023-02-20T22:43:59.995Z,97306.28
2023-02-20T22:46:45.279Z,97293.91
2023-02-20T22:49:30.825Z,97293.06
2023-02-20T22:52:16.032Z,97296.84
2023-02-20T22:55:05.917Z,97295.25
2023-02-20T22:57:52.655Z,97289.34
2023-02-20T23:00:38.610Z,97288.03
2023-02-20T23:03:24.695Z,97284.06
2023-02-20T23:06:19.710Z,97289.91
2023-02-20T23:09:07.745Z,97290.56
2023-02-20T23:11:55.528Z,97292.91
2023-02-20T23:14:41.268Z,97290.88
2023-02-20T23:17:37.433Z,97279.00
2023-02-20T23:20:35.336Z,97285.97
2023-02-20T23:23:21.183Z,97286.22
2023-02-20T23:26:06.922Z,97284.19
2023-02-20T23:28:52.622Z,97288.19
2023-02-20T23:31:49.552Z,97283.63
2023-02-20T23:34:35.653Z,97281.19
2023-02-20T23:37:21.391Z,97278.91
2023-02-20T23:40:06.527Z,97275.19
2023-02-20T23:42:52.198Z,97281.88
2023-02-20T23:45:37.379Z,97270.84
2023-02-20T23:48:23.330Z,97287.22
2023-02-20T23:51:08.640Z,97276.09
2023-02-20T23:53:55.640Z,97274.75
2023-02-20T23:56:42.199Z,97275.09
2023-02-20T23:59:28.426Z,97272.81
